Terminal Aerodrome Forecast
Issued by NWS

Home | Current Version | Previous Version | Text Only | Print | Product List | Glossary On
Versions: 1 2 3 4 5 6 7 8 9 10 11 12 13 14
000
FTUS43 KSGF 271120
TAFBBG
TAF
KBBG 271120Z 2712/2812 15005KT P6SM BKN025
     FM271900 18014G23KT P6SM BKN035
     FM280000 18008KT P6SM VCTS BKN040CB
      TEMPO 2801/2805 VRB25G35KT 2SM +TSRA BR OVC025CB
     FM280700 22005KT P6SM BKN020=

USA.gov is the U.S. government's official web portal to all federal, state and local government web resources and services.